KNSE/NSE METAR and TAF weather

Enter ICAO airport designator
Station Type Date Time Source
KNSE METAR 2021/04/13 22:56 UTC NOAA

KNSE 132256Z 25005KT 10SM SCT140 OVC230 22/13 A3007 RMK SLP170 T02220128


Station Type Date Time Source
KNSE Decoded METAR 2021/04/13 22:56 UTC NOAA

MILTON WHITING FIELD (NORTH), FL, United States (KNSE) 30-44N 87-01W 60M
Apr 13, 2021 - 06:56 PM EDT / 2021.04.13 2256 UTC
Wind: from the WSW (250 degrees) at 6 MPH (5 KT):0
Visibility: 10 mile(s):0
Sky conditions: overcast
Temperature: 72.0 F (22.2 C)
Dew Point: 55.0 F (12.8 C)
Relative Humidity: 55%
Pressure (altimeter): 30.07 in. Hg (1018 hPa)
ob: KNSE 132256Z 25005KT 10SM SCT140 OVC230 22/13 A3007 RMK SLP170 T02220128
cycle: 23

Station Type Date Time Source
KNSE TAF 2021/04/13 15:07 UTC NOAA

TAF KNSE 1315/1415 VRB06KT 9999 FEW100 SCT250 QNH3003INS
FM131800 15008KT 9999 SCT120 SCT250 QNH3001INS
TEMPO 1318/1322 18010G15KT
FM132300 15006KT 9999 BKN120 BKN250 QNH3002INS
FM140500 VRB05KT 9999 FEW050 BKN120 BKN250 QNH2999INS T30/1320Z T14/1412Z FN20071

Example: see airport list